Terminal Aerodrome Forecast
Issued by NWS

Home | Current Version | Previous Version | Text Only | Print | Product List | Glossary Off
Versions: 1 2 3 4 5 6 7 8 9 10 11 12 13 14 15 16 17 18 19 20 21 22 23 24 25 26 27 28 29 30 31 32 33 34

000
FTUS43 KLOT 152100 AAC
TAFORD
TAF AMD
KORD 152146Z 1522/1624 30007KT P6SM VCSH BKN025 OVC035
     FM152230 01012KT 6SM -RADZ SCT012 BKN018 OVC030
     FM160030 36008KT P6SM SCT015 BKN025 BKN040
     FM160230 34006KT P6SM SKC=

USA.gov is the U.S. government's official web portal to all federal, state and local government web resources and services.